Friday, July 20, 2018, 12:44 PM EDT
Back to Local

KFKL, Franklin, Venango Regional Airport

Location: Franklin, PA, United States Lat: 41.383
Local Time: 12:44 PM EDT (16:44 GMT) Lon: -79.867
Time Zone: US/Eastern Elev: 1538 ft

Show me the last for .
Show Decoded

2018-07-20 11:56 METAR KFKL 201556Z AUTO 15014G20KT 10SM CLR 26/16 A3003 RMK AO2 SLP160 T02610161
                 =
2018-07-20 10:56 METAR KFKL 201456Z AUTO 16011KT 10SM CLR 25/16 A3004 RMK AO2 SLP164 6////
                 T02500161 58010 =
2018-07-20 09:56 METAR KFKL 201356Z AUTO 16007KT 10SM CLR 24/16 A3006 RMK AO2 SLP169 T02390161 =
2018-07-20 08:56 METAR KFKL 201256Z AUTO 16007KT 10SM CLR 22/15 A3006 RMK AO2 SLP171 T02170150 =
2018-07-20 07:56 METAR KFKL 201156Z AUTO 14010KT 10SM FEW060 20/14 A3007 RMK AO2 SLP173 6////
                 7//// T02000144 10200 20172 53004 =
2018-07-20 06:56 METAR KFKL 201056Z AUTO 15007KT 10SM BKN065 18/14 A3006 RMK AO2 SLP171 T01830144
                 =
2018-07-20 05:56 METAR KFKL 200956Z AUTO 14006KT 10SM BKN065 18/14 A3006 RMK AO2 SLP171 T01830139
                 =
2018-07-20 04:56 METAR KFKL 200856Z AUTO 15008KT 10SM OVC060 18/14 A3006 RMK AO2 SLP169 6////
                 T01830139 58002 =
2018-07-20 03:56 METAR KFKL 200756Z AUTO 15007KT 10SM FEW060 18/14 A3006 RMK AO2 SLP171 T01780139
                 =
2018-07-20 02:56 METAR KFKL 200656Z AUTO 13006KT 10SM CLR 18/14 A3006 RMK AO2 SLP173 T01780144 =
2018-07-20 01:56 METAR KFKL 200556Z AUTO 13007KT 10SM CLR 18/14 A3007 RMK AO2 SLP173 T01780144
                 10250 20178 58003 =
2018-07-20 00:56 METAR KFKL 200456Z AUTO 13007KT 10SM CLR 18/14 A3008 RMK AO2 SLP177 T01780144
                 402670106 =
2018-07-19 23:56 METAR KFKL 200356Z AUTO 12006KT 10SM CLR 19/14 A3008 RMK AO2 SLP179 T01890144 =
2018-07-19 22:56 METAR KFKL 200256Z AUTO 00000KT 10SM CLR 19/15 A3007 RMK AO2 SLP176 T01940150
                 53001 =
2018-07-19 21:56 METAR KFKL 200156Z AUTO 11003KT 10SM CLR 21/14 A3007 RMK AO2 SLP177 T02060144 =
2018-07-19 20:56 METAR KFKL 200056Z AUTO 14005KT 10SM CLR 22/14 A3007 RMK AO2 SLP176 T02220144 =
2018-07-19 19:56 METAR KFKL 192356Z AUTO 12004KT 10SM CLR 25/14 A3007 RMK AO2 SLP176 T02500144
                 10267 20250 58005 =
2018-07-19 18:56 METAR KFKL 192256Z AUTO 14008KT 10SM CLR 26/13 A3007 RMK AO2 SLP179 T02560133 =
2018-07-19 17:56 METAR KFKL 192156Z AUTO VRB06KT 10SM CLR 27/14 A3008 RMK AO2 SLP183 T02670144 =
2018-07-19 16:56 METAR KFKL 192056Z AUTO 11005KT 10SM CLR 27/14 A3009 RMK AO2 SLP182 T02670144
                 57013 =
2018-07-19 15:56 METAR KFKL 191956Z AUTO 22004KT 10SM CLR 27/14 A3010 RMK AO2 SLP186 T02670139 =
2018-07-19 14:56 METAR KFKL 191856Z AUTO 12008KT 9SM SCT048 25/13 A3012 RMK AO2 SLP193 T02500133
                 =
2018-07-19 13:56 METAR KFKL 191756Z AUTO VRB05KT 10SM CLR 25/13 A3013 RMK AO2 SLP196 T02500133
                 10250 20156 58011 =
2018-07-19 12:56 METAR KFKL 191656Z AUTO 16004KT 10SM SCT043 24/13 A3014 RMK AO2 SLP201 T02390128
                 =

Support USWX by starting your Amazon purchase here.